createdAt,value
2022-10-06T00:01:21.727Z,3.92
2022-10-06T00:04:12.080Z,3.83
2022-10-06T00:07:02.330Z,4.35
2022-10-06T00:09:52.746Z,3.63
2022-10-06T00:12:45.584Z,5.10
2022-10-06T00:15:36.359Z,4.78
2022-10-06T00:18:28.171Z,4.30
2022-10-06T00:21:18.345Z,4.53
2022-10-06T00:24:08.761Z,4.85
2022-10-06T00:26:58.682Z,4.88
2022-10-06T00:29:48.552Z,4.32
2022-10-06T00:32:40.046Z,5.10
2022-10-06T00:35:33.689Z,4.63
2022-10-06T00:38:23.933Z,4.80
2022-10-06T00:41:16.252Z,4.78
2022-10-06T00:44:06.718Z,4.55
2022-10-06T00:46:57.270Z,4.85
2022-10-06T00:49:47.620Z,4.70
2022-10-06T00:52:38.942Z,4.35
2022-10-06T00:55:30.239Z,4.50
2022-10-06T00:58:21.534Z,4.65
2022-10-06T01:01:13.001Z,4.93
2022-10-06T01:04:09.247Z,5.20
2022-10-06T01:07:00.291Z,4.53
2022-10-06T01:09:50.810Z,4.68
2022-10-06T01:12:40.924Z,4.80
2022-10-06T01:15:31.275Z,4.55
2022-10-06T01:18:26.993Z,4.32
2022-10-06T01:21:31.149Z,4.55
2022-10-06T01:24:21.673Z,4.82
2022-10-06T01:27:15.125Z,5.13
2022-10-06T01:30:08.544Z,4.97
2022-10-06T01:32:59.178Z,4.30
2022-10-06T01:35:52.122Z,4.90
2022-10-06T01:38:42.587Z,5.00
2022-10-06T01:41:33.967Z,5.10
2022-10-06T01:44:25.544Z,4.72
2022-10-06T01:47:15.536Z,4.63
2022-10-06T01:50:07.128Z,4.72
2022-10-06T01:52:57.496Z,5.05
2022-10-06T01:55:50.123Z,4.82
2022-10-06T01:58:44.777Z,4.65
2022-10-06T02:01:35.916Z,4.72
2022-10-06T02:04:26.396Z,4.90
2022-10-06T02:07:17.287Z,4.40
2022-10-06T02:10:10.138Z,4.55
2022-10-06T02:13:00.181Z,5.22
2022-10-06T02:15:51.081Z,5.60
2022-10-06T02:18:41.812Z,5.22
2022-10-06T02:21:32.315Z,5.15
2022-10-06T02:24:22.335Z,4.80
2022-10-06T02:27:12.497Z,4.90
2022-10-06T02:30:04.329Z,4.75
2022-10-06T02:32:55.473Z,4.72
2022-10-06T02:35:46.523Z,5.25
2022-10-06T02:38:36.885Z,5.22
2022-10-06T02:41:31.081Z,5.30
2022-10-06T02:44:21.462Z,5.00
2022-10-06T02:47:14.127Z,5.07
2022-10-06T02:50:07.377Z,4.43
2022-10-06T02:52:57.809Z,4.40
2022-10-06T02:55:47.932Z,4.63
2022-10-06T02:58:42.837Z,4.90
2022-10-06T03:01:36.267Z,5.07
2022-10-06T03:04:36.876Z,5.55
2022-10-06T03:07:27.042Z,5.43
2022-10-06T03:10:16.904Z,5.38
2022-10-06T03:13:06.680Z,5.28
2022-10-06T03:15:57.343Z,5.47
2022-10-06T03:18:51.680Z,5.03
2022-10-06T03:21:44.036Z,6.15
2022-10-06T03:24:35.517Z,5.07
2022-10-06T03:27:25.669Z,5.45
2022-10-06T03:30:19.541Z,5.43
2022-10-06T03:33:09.961Z,5.03
2022-10-06T03:36:02.685Z,5.65
2022-10-06T03:38:55.192Z,5.65
2022-10-06T03:41:47.155Z,5.82
2022-10-06T03:44:38.119Z,5.35
2022-10-06T03:47:32.146Z,5.43
2022-10-06T03:50:22.284Z,5.20
2022-10-06T03:53:12.595Z,6.43
2022-10-06T03:56:04.270Z,5.68
2022-10-06T03:59:03.990Z,5.60
2022-10-06T04:01:55.982Z,6.00
2022-10-06T04:04:50.208Z,5.95
2022-10-06T04:07:41.212Z,5.63
2022-10-06T04:10:31.225Z,5.93
2022-10-06T04:13:22.425Z,5.72
2022-10-06T04:16:18.566Z,5.55
2022-10-06T04:19:11.493Z,5.70
2022-10-06T04:22:05.617Z,5.18
2022-10-06T04:24:57.075Z,5.28
2022-10-06T04:27:47.238Z,5.88
2022-10-06T04:30:38.888Z,5.45
2022-10-06T04:33:32.584Z,5.28
2022-10-06T04:36:26.138Z,6.15
2022-10-06T04:39:17.255Z,5.45
2022-10-06T04:42:09.179Z,5.15
2022-10-06T04:45:00.148Z,5.85
2022-10-06T04:47:50.774Z,6.03
2022-10-06T04:50:41.261Z,5.90
2022-10-06T04:53:34.346Z,6.93
2022-10-06T04:56:30.091Z,6.50
2022-10-06T04:59:43.041Z,5.18
2022-10-06T05:02:34.600Z,5.22
2022-10-06T05:05:25.145Z,5.43
2022-10-06T05:08:17.640Z,5.13
2022-10-06T05:11:15.059Z,5.32
2022-10-06T05:14:07.774Z,4.78
2022-10-06T05:17:01.377Z,5.00
2022-10-06T05:19:54.020Z,4.93
2022-10-06T05:22:44.537Z,5.03
2022-10-06T05:25:35.095Z,4.80
2022-10-06T05:28:27.853Z,4.88
2022-10-06T05:31:24.943Z,5.40
2022-10-06T05:34:15.375Z,5.65
2022-10-06T05:37:08.586Z,5.53
2022-10-06T05:39:58.952Z,5.80
2022-10-06T05:42:49.400Z,5.70
2022-10-06T05:45:39.535Z,6.35
2022-10-06T05:48:30.877Z,6.55
2022-10-06T05:51:27.952Z,7.18
2022-10-06T05:54:20.979Z,7.07
2022-10-06T05:57:12.380Z,7.25
2022-10-06T06:00:02.706Z,7.60
2022-10-06T06:03:02.967Z,8.13
2022-10-06T06:05:53.422Z,6.90
2022-10-06T06:08:44.378Z,7.07
2022-10-06T06:11:36.977Z,7.70
2022-10-06T06:14:45.761Z,7.88
2022-10-06T06:17:40.881Z,6.72
2022-10-06T06:20:30.887Z,6.90
2022-10-06T06:23:21.243Z,6.90
2022-10-06T06:26:15.154Z,6.03
2022-10-06T06:29:08.986Z,6.70
2022-10-06T06:32:06.173Z,6.43
2022-10-06T06:34:56.164Z,5.90
2022-10-06T06:37:46.807Z,7.15
2022-10-06T06:40:41.313Z,7.85
2022-10-06T06:46:37.419Z,5.65
2022-10-06T06:49:37.049Z,5.72
2022-10-06T06:52:32.482Z,5.82
2022-10-06T06:55:23.420Z,5.68
2022-10-06T06:58:13.763Z,7.00
2022-10-06T07:01:13.641Z,6.25
2022-10-06T07:04:06.685Z,5.90
2022-10-06T07:06:59.536Z,5.80
2022-10-06T07:09:53.304Z,5.82
2022-10-06T07:12:46.082Z,5.72
2022-10-06T07:15:55.189Z,5.65
2022-10-06T07:19:04.177Z,5.70
2022-10-06T07:22:19.722Z,4.85
2022-10-06T07:25:26.585Z,4.93
2022-10-06T07:28:24.196Z,4.55
2022-10-06T07:31:19.030Z,4.40
2022-10-06T07:34:10.521Z,4.93
2022-10-06T07:37:04.177Z,4.47
2022-10-06T07:39:57.490Z,4.25
2022-10-06T07:42:48.270Z,5.00
2022-10-06T07:45:47.019Z,5.20
2022-10-06T07:48:57.805Z,3.92
2022-10-06T07:51:48.181Z,3.88
2022-10-06T07:54:38.542Z,3.55
2022-10-06T07:57:45.632Z,3.42
2022-10-06T08:00:35.648Z,3.40
2022-10-06T08:03:25.836Z,3.20
2022-10-06T08:06:17.137Z,3.50
2022-10-06T08:09:07.679Z,3.00
2022-10-06T08:11:57.903Z,3.08
2022-10-06T08:14:47.884Z,3.00
2022-10-06T08:17:38.515Z,2.95
2022-10-06T08:20:30.392Z,3.25
2022-10-06T08:23:20.563Z,3.25
2022-10-06T08:26:12.488Z,2.88
2022-10-06T08:29:03.458Z,3.28
2022-10-06T08:31:54.169Z,3.08
2022-10-06T08:34:44.396Z,3.30
2022-10-06T08:37:35.990Z,2.78
2022-10-06T08:40:28.027Z,2.55
2022-10-06T08:43:20.341Z,1.70
2022-10-06T08:46:14.437Z,2.22
2022-10-06T08:52:07.907Z,1.67
2022-10-06T08:55:15.070Z,2.10
2022-10-06T08:58:29.226Z,1.67
2022-10-06T09:01:25.400Z,1.77
2022-10-06T09:04:29.764Z,1.98
2022-10-06T09:07:42.717Z,2.07
2022-10-06T09:11:10.013Z,2.17
2022-10-06T09:14:37.539Z,1.85
2022-10-06T09:17:35.111Z,1.90
2022-10-06T09:20:34.114Z,2.00
2022-10-06T09:23:46.254Z,1.85
2022-10-06T09:26:43.291Z,1.65
2022-10-06T09:29:33.341Z,1.58
2022-10-06T09:32:25.944Z,1.63
2022-10-06T09:35:24.346Z,1.50
2022-10-06T09:38:14.219Z,1.80
2022-10-06T09:41:05.218Z,2.60
2022-10-06T09:44:07.437Z,1.50
2022-10-06T09:46:57.509Z,1.90
2022-10-06T09:50:23.247Z,2.03
2022-10-06T09:53:16.318Z,1.80
2022-10-06T09:56:19.313Z,1.48
2022-10-06T09:59:22.583Z,1.55
2022-10-06T10:02:40.795Z,1.77
2022-10-06T10:05:37.529Z,1.60
2022-10-06T10:08:31.994Z,1.38
2022-10-06T10:11:41.774Z,1.98
2022-10-06T10:14:38.585Z,1.52
2022-10-06T10:17:36.571Z,1.05
2022-10-06T10:21:06.316Z,1.33
2022-10-06T10:23:58.709Z,1.27
2022-10-06T10:27:03.171Z,1.42
2022-10-06T10:30:07.902Z,1.23
2022-10-06T10:33:09.331Z,1.15
2022-10-06T10:36:04.577Z,1.52
2022-10-06T10:38:55.186Z,1.17
2022-10-06T10:41:52.284Z,1.35
2022-10-06T10:44:52.060Z,1.45
2022-10-06T10:47:45.495Z,1.33
2022-10-06T10:51:02.454Z,1.20
2022-10-06T10:54:01.831Z,1.27
2022-10-06T10:56:53.324Z,1.40
2022-10-06T11:00:00.333Z,1.30
2022-10-06T11:02:54.929Z,1.25
2022-10-06T11:06:06.803Z,0.82
2022-10-06T11:09:10.663Z,1.13
2022-10-06T11:12:18.487Z,1.23
2022-10-06T11:15:33.690Z,1.13
2022-10-06T11:18:38.952Z,1.55
2022-10-06T11:21:50.679Z,1.05
2022-10-06T11:25:16.841Z,0.90
2022-10-06T11:28:13.271Z,1.00
2022-10-06T11:31:37.429Z,1.05
2022-10-06T11:34:27.942Z,1.40
2022-10-06T11:37:48.298Z,1.00
2022-10-06T11:41:09.818Z,0.90
2022-10-06T11:44:09.499Z,1.67
2022-10-06T11:47:06.166Z,1.23
2022-10-06T11:49:56.316Z,1.00
2022-10-06T11:52:46.802Z,2.15
2022-10-06T11:55:37.094Z,1.20
2022-10-06T11:58:41.995Z,1.20
2022-10-06T12:01:36.407Z,2.05
2022-10-06T12:04:26.870Z,1.38
2022-10-06T12:07:17.184Z,1.25
2022-10-06T12:10:29.463Z,1.25
2022-10-06T12:17:19.042Z,1.10
2022-10-06T12:20:17.510Z,1.02
2022-10-06T12:23:28.701Z,1.92
2022-10-06T12:26:41.328Z,1.20
2022-10-06T12:29:51.489Z,1.20
2022-10-06T12:32:56.498Z,1.00
2022-10-06T12:35:47.546Z,0.93
2022-10-06T12:38:43.028Z,1.77
2022-10-06T12:42:02.214Z,1.10
2022-10-06T12:44:53.336Z,1.08
2022-10-06T12:47:44.507Z,1.23
2022-10-06T12:50:37.146Z,1.10
2022-10-06T12:53:32.860Z,1.10
2022-10-06T12:56:28.257Z,1.35
2022-10-06T12:59:20.383Z,1.38
2022-10-06T13:02:18.220Z,1.38
2022-10-06T13:05:12.790Z,1.10
2022-10-06T13:08:05.733Z,1.10
2022-10-06T13:11:27.227Z,0.90
2022-10-06T13:14:17.205Z,1.13
2022-10-06T13:17:09.378Z,1.10
2022-10-06T13:19:59.849Z,1.45
2022-10-06T13:22:58.864Z,1.10
2022-10-06T13:25:53.447Z,0.90
2022-10-06T13:28:43.537Z,1.23
2022-10-06T13:31:36.556Z,1.30
2022-10-06T13:34:45.735Z,1.40
2022-10-06T13:37:37.167Z,0.98
2022-10-06T13:40:47.052Z,1.25
2022-10-06T13:43:41.737Z,1.10
2022-10-06T13:46:40.278Z,1.30
2022-10-06T13:49:33.030Z,1.45
2022-10-06T13:52:33.887Z,1.30
2022-10-06T13:55:26.536Z,1.30
2022-10-06T13:58:23.775Z,0.85
2022-10-06T14:01:14.000Z,1.08
2022-10-06T14:04:18.386Z,1.10
2022-10-06T14:07:13.353Z,1.13
2022-10-06T14:10:03.627Z,1.25
2022-10-06T14:12:54.029Z,0.80
2022-10-06T14:16:06.391Z,1.00
2022-10-06T14:19:00.421Z,1.40
2022-10-06T14:21:51.357Z,0.98
2022-10-06T14:24:51.054Z,1.23
2022-10-06T14:27:41.242Z,1.10
2022-10-06T14:30:31.248Z,1.63
2022-10-06T14:33:21.483Z,0.98
2022-10-06T14:36:36.366Z,1.50
2022-10-06T14:39:28.359Z,1.65
2022-10-06T14:42:18.897Z,1.25
2022-10-06T14:45:09.793Z,1.50
2022-10-06T14:47:59.974Z,1.08
2022-10-06T14:50:50.257Z,1.30
2022-10-06T14:53:40.474Z,1.05
2022-10-06T14:56:33.524Z,1.30
2022-10-06T14:59:24.090Z,1.35
2022-10-06T15:02:14.481Z,1.15
2022-10-06T15:05:05.267Z,1.45
2022-10-06T15:08:10.616Z,1.13
2022-10-06T15:11:00.621Z,1.25
2022-10-06T15:13:51.096Z,1.00
2022-10-06T15:16:43.739Z,1.15
2022-10-06T15:19:34.201Z,1.38
2022-10-06T15:22:24.517Z,1.40
2022-10-06T15:25:34.865Z,1.25
2022-10-06T15:28:43.567Z,1.20
2022-10-06T15:31:37.120Z,1.17
2022-10-06T15:34:29.547Z,1.00
2022-10-06T15:37:19.941Z,0.80
2022-10-06T15:40:10.214Z,1.10
2022-10-06T15:43:00.290Z,1.20
2022-10-06T15:45:55.281Z,1.33
2022-10-06T15:48:46.147Z,0.98
2022-10-06T15:51:42.854Z,1.40
2022-10-06T15:54:38.227Z,1.30
2022-10-06T15:57:30.182Z,0.93
2022-10-06T16:00:21.117Z,1.27
2022-10-06T16:03:25.722Z,1.10
2022-10-06T16:09:13.150Z,1.10
2022-10-06T16:12:05.760Z,2.25
2022-10-06T16:14:55.935Z,1.20
2022-10-06T16:17:45.816Z,1.02
2022-10-06T16:20:35.880Z,1.10
2022-10-06T16:23:26.222Z,1.00
2022-10-06T16:26:16.086Z,1.05
2022-10-06T16:29:05.975Z,1.35
2022-10-06T16:31:56.564Z,1.38
2022-10-06T16:34:50.396Z,0.98
2022-10-06T16:37:43.074Z,1.30
2022-10-06T16:40:32.993Z,1.27
2022-10-06T16:43:24.518Z,1.00
2022-10-06T16:46:17.050Z,1.45
2022-10-06T16:49:09.099Z,1.48
2022-10-06T16:51:59.168Z,1.42
2022-10-06T16:54:49.227Z,1.20
2022-10-06T16:57:39.485Z,2.05
2022-10-06T17:00:29.863Z,2.05
2022-10-06T17:03:20.306Z,1.70
2022-10-06T17:06:16.238Z,1.80
2022-10-06T17:09:14.496Z,1.60
2022-10-06T17:12:04.918Z,1.90
2022-10-06T17:14:55.054Z,1.30
2022-10-06T17:17:45.168Z,1.42
2022-10-06T17:20:35.697Z,1.67
2022-10-06T17:23:27.198Z,1.95
2022-10-06T17:26:23.522Z,1.63
2022-10-06T17:29:19.239Z,1.60
2022-10-06T17:32:09.541Z,1.52
2022-10-06T17:34:59.757Z,1.70
2022-10-06T17:37:50.252Z,11.27
2022-10-06T17:40:44.389Z,3.88
2022-10-06T17:43:39.078Z,1.95
2022-10-06T17:46:34.265Z,2.13
2022-10-06T17:49:25.723Z,1.95
2022-10-06T17:52:17.218Z,2.17
2022-10-06T17:55:10.419Z,9.82
2022-10-06T17:58:00.864Z,9.88
2022-10-06T18:00:51.117Z,6.85
2022-10-06T18:03:42.888Z,7.18
2022-10-06T18:06:35.294Z,6.75
2022-10-06T18:09:26.090Z,6.95
2022-10-06T18:12:16.850Z,6.57
2022-10-06T18:15:08.782Z,5.93
2022-10-06T18:17:59.463Z,5.90
2022-10-06T18:20:49.547Z,5.68
2022-10-06T18:23:41.131Z,3.90
2022-10-06T18:26:31.680Z,2.88
2022-10-06T18:29:24.969Z,3.25
2022-10-06T18:33:37.243Z,3.25
2022-10-06T18:38:41.629Z,3.67
2022-10-06T18:41:31.609Z,3.65
2022-10-06T18:44:40.092Z,3.00
2022-10-06T18:47:49.056Z,3.33
2022-10-06T18:50:39.506Z,4.07
2022-10-06T18:53:32.649Z,3.70
2022-10-06T18:56:25.880Z,3.67
2022-10-06T18:59:26.944Z,3.70
2022-10-06T19:02:17.524Z,3.33
2022-10-06T19:05:08.102Z,3.53
2022-10-06T19:07:58.227Z,3.75
2022-10-06T19:11:06.955Z,4.05
2022-10-06T19:13:57.945Z,14.40
2022-10-06T19:16:51.067Z,3.67
2022-10-06T19:19:50.997Z,3.50
2022-10-06T19:22:43.438Z,2.80
2022-10-06T19:25:33.882Z,3.30
2022-10-06T19:28:24.189Z,2.63
2022-10-06T19:31:19.923Z,3.92
2022-10-06T19:34:12.831Z,3.30
2022-10-06T19:37:04.601Z,3.20
2022-10-06T19:39:54.896Z,3.22
2022-10-06T19:42:48.021Z,4.07
2022-10-06T19:45:38.561Z,5.47
2022-10-06T19:48:29.042Z,4.32
2022-10-06T19:51:19.352Z,3.80
2022-10-06T19:54:11.855Z,4.25
2022-10-06T19:57:05.462Z,4.78
2022-10-06T19:59:56.040Z,5.20
2022-10-06T20:02:46.699Z,4.38
2022-10-06T20:05:38.267Z,4.60
2022-10-06T20:08:29.860Z,4.25
2022-10-06T20:11:21.978Z,3.97
2022-10-06T20:14:20.812Z,4.10
2022-10-06T20:17:11.651Z,4.50
2022-10-06T20:20:03.241Z,5.15
2022-10-06T20:22:53.972Z,4.45
2022-10-06T20:25:44.447Z,4.50
2022-10-06T20:28:34.847Z,4.45
2022-10-06T20:31:27.957Z,4.38
2022-10-06T20:34:21.351Z,4.40
2022-10-06T20:37:11.369Z,4.82
2022-10-06T20:40:19.969Z,4.55
2022-10-06T20:43:10.302Z,4.28
2022-10-06T20:46:00.884Z,4.07
2022-10-06T20:48:51.397Z,4.07
2022-10-06T20:51:46.473Z,3.92
2022-10-06T20:54:37.282Z,3.70
2022-10-06T20:57:32.870Z,4.00
2022-10-06T21:00:23.811Z,3.67
2022-10-06T21:03:14.428Z,3.72
2022-10-06T21:06:05.661Z,3.58
2022-10-06T21:08:56.390Z,3.75
2022-10-06T21:11:47.090Z,4.10
2022-10-06T21:14:37.972Z,4.18
2022-10-06T21:17:28.185Z,4.20
2022-10-06T21:20:18.387Z,5.05
2022-10-06T21:23:08.710Z,5.07
2022-10-06T21:26:01.097Z,3.92
2022-10-06T21:28:54.606Z,3.65
2022-10-06T21:31:46.045Z,3.67
2022-10-06T21:34:37.437Z,3.70
2022-10-06T21:37:27.753Z,4.55
2022-10-06T21:40:17.910Z,4.00
2022-10-06T21:43:08.197Z,4.18
2022-10-06T21:46:23.899Z,4.40
2022-10-06T21:49:14.877Z,3.75
2022-10-06T21:52:05.497Z,4.20
2022-10-06T21:54:55.919Z,3.78
2022-10-06T21:57:46.406Z,4.10
2022-10-06T22:00:38.144Z,4.80
2022-10-06T22:03:28.300Z,5.45
2022-10-06T22:06:19.861Z,5.05
2022-10-06T22:09:14.574Z,5.20
2022-10-06T22:14:58.773Z,4.53
2022-10-06T22:17:49.178Z,5.18
2022-10-06T22:20:39.461Z,4.07
2022-10-06T22:23:29.662Z,4.32
2022-10-06T22:26:20.033Z,3.85
2022-10-06T22:29:13.685Z,11.23
2022-10-06T22:32:04.073Z,4.80
2022-10-06T22:34:54.707Z,4.88
2022-10-06T22:37:45.311Z,4.38
2022-10-06T22:40:36.126Z,4.40
2022-10-06T22:43:26.749Z,4.25
2022-10-06T22:46:17.151Z,4.18
2022-10-06T22:49:07.703Z,4.75
2022-10-06T22:51:57.941Z,4.50
2022-10-06T22:54:48.431Z,4.80
2022-10-06T22:57:38.891Z,4.60
2022-10-06T23:00:29.138Z,4.68
2022-10-06T23:03:19.678Z,4.60
2022-10-06T23:06:12.993Z,5.18
2022-10-06T23:09:04.211Z,4.43
2022-10-06T23:11:54.260Z,4.57
2022-10-06T23:14:44.756Z,4.22
2022-10-06T23:17:37.578Z,3.90
2022-10-06T23:20:28.210Z,4.55
2022-10-06T23:23:18.440Z,4.25
2022-10-06T23:26:11.726Z,4.13
2022-10-06T23:29:02.039Z,4.22
2022-10-06T23:31:52.393Z,4.50
2022-10-06T23:34:42.841Z,4.57
2022-10-06T23:37:33.273Z,4.35
2022-10-06T23:40:23.276Z,4.47
2022-10-06T23:43:13.615Z,4.18
2022-10-06T23:46:04.389Z,3.92
2022-10-06T23:48:54.530Z,3.55
2022-10-06T23:51:44.654Z,3.65
2022-10-06T23:54:34.955Z,3.90
2022-10-06T23:57:25.222Z,3.33
